createdAt,value
2018-04-14T00:00:37.462Z,45.80
2018-04-14T00:03:04.925Z,45.77
2018-04-14T00:05:32.369Z,46.27
2018-04-14T00:07:59.825Z,46.37
2018-04-14T00:10:27.270Z,46.43
2018-04-14T00:12:54.725Z,46.77
2018-04-14T00:15:22.181Z,47.73
2018-04-14T00:17:49.655Z,48.17
2018-04-14T00:20:17.117Z,45.27
2018-04-14T00:22:44.633Z,45.00
2018-04-14T00:25:12.103Z,46.10
2018-04-14T00:27:39.546Z,46.27
2018-04-14T00:30:07.026Z,49.43
2018-04-14T00:32:34.514Z,47.67
2018-04-14T00:35:01.979Z,47.90
2018-04-14T00:37:29.428Z,48.00
2018-04-14T00:39:57.675Z,46.93
2018-04-14T00:42:25.125Z,45.10
2018-04-14T00:44:52.607Z,45.60
2018-04-14T00:47:20.055Z,48.50
2018-04-14T00:49:47.508Z,48.30
2018-04-14T00:52:14.980Z,46.50
2018-04-14T00:54:42.437Z,46.07
2018-04-14T00:57:09.892Z,47.40
2018-04-14T00:59:37.338Z,45.17
2018-04-14T01:02:06.318Z,44.63
2018-04-14T01:04:34.582Z,44.60
2018-04-14T01:07:02.040Z,45.03
2018-04-14T01:09:29.507Z,47.43
2018-04-14T01:12:03.603Z,46.00
2018-04-14T01:14:31.062Z,44.97
2018-04-14T01:16:58.525Z,46.27
2018-04-14T01:19:25.981Z,48.37
2018-04-14T01:21:53.450Z,48.63
2018-04-14T01:24:20.921Z,50.00
2018-04-14T01:26:48.382Z,50.47
2018-04-14T01:29:15.837Z,50.93
2018-04-14T01:31:43.313Z,53.93
2018-04-14T01:34:10.748Z,54.67
2018-04-14T01:36:38.230Z,55.43
2018-04-14T01:39:05.660Z,57.57
2018-04-14T01:41:33.131Z,58.43
2018-04-14T01:44:00.590Z,60.17
2018-04-14T01:46:28.055Z,59.47
2018-04-14T01:48:55.516Z,60.90
2018-04-14T01:51:23.761Z,60.30
2018-04-14T01:53:52.033Z,63.73
2018-04-14T01:56:19.494Z,64.07
2018-04-14T01:58:46.959Z,64.70
2018-04-14T02:01:14.423Z,66.30
2018-04-14T02:03:41.880Z,67.80
2018-04-14T02:06:09.343Z,69.23
2018-04-14T02:08:36.800Z,67.60
2018-04-14T02:11:04.286Z,70.83
2018-04-14T02:13:31.761Z,71.57
2018-04-14T02:15:59.217Z,73.60
2018-04-14T02:18:26.652Z,71.43
2018-04-14T02:20:54.164Z,73.43
2018-04-14T02:23:21.633Z,74.30
2018-04-14T02:25:49.104Z,76.13
2018-04-14T02:28:17.389Z,79.30
2018-04-14T02:30:45.626Z,72.17
2018-04-14T02:33:13.100Z,73.70
2018-04-14T02:35:40.593Z,73.30
2018-04-14T02:38:08.052Z,75.00
2018-04-14T02:40:35.548Z,72.17
2018-04-14T02:43:03.060Z,77.83
2018-04-14T02:45:30.539Z,76.07
2018-04-14T02:47:58.119Z,73.53
2018-04-14T02:50:25.608Z,72.53
2018-04-14T02:52:53.103Z,75.47
2018-04-14T02:55:20.572Z,71.70
2018-04-14T02:57:48.066Z,70.67
2018-04-14T03:00:15.517Z,70.03
2018-04-14T03:02:42.995Z,70.97
2018-04-14T03:05:10.485Z,68.20
2018-04-14T03:07:38.008Z,62.80
2018-04-14T03:10:05.489Z,62.60
2018-04-14T03:12:33.747Z,65.87
2018-04-14T03:15:01.220Z,65.37
2018-04-14T03:17:28.676Z,66.50
2018-04-14T03:19:56.164Z,71.03
2018-04-14T03:22:23.760Z,71.40
2018-04-14T03:24:51.220Z,73.33
2018-04-14T03:27:18.689Z,66.27
2018-04-14T03:29:46.179Z,71.30
2018-04-14T03:32:13.653Z,61.83
2018-04-14T03:34:41.111Z,68.90
2018-04-14T03:37:08.609Z,63.13
2018-04-14T03:39:36.073Z,67.83
2018-04-14T03:42:03.533Z,61.80
2018-04-14T03:44:31.035Z,63.97
2018-04-14T03:46:58.500Z,67.90
2018-04-14T03:49:25.987Z,55.83
2018-04-14T03:51:53.448Z,50.83
2018-04-14T03:54:20.927Z,46.53
2018-04-14T03:56:49.160Z,48.87
2018-04-14T03:59:16.677Z,48.23
2018-04-14T04:01:44.119Z,47.70
2018-04-14T04:04:11.599Z,47.53
2018-04-14T04:06:39.052Z,43.37
2018-04-14T04:09:06.533Z,46.97
2018-04-14T04:11:34.022Z,43.60
2018-04-14T04:14:01.500Z,43.93
2018-04-14T04:16:28.985Z,43.50
2018-04-14T04:19:09.183Z,40.87
2018-04-14T04:21:48.653Z,36.97
2018-04-14T04:24:28.692Z,37.80
2018-04-14T04:26:56.173Z,34.97
2018-04-14T04:29:23.660Z,37.80
2018-04-14T04:31:51.139Z,34.57
2018-04-14T04:34:18.604Z,35.93
2018-04-14T04:36:46.075Z,32.87
2018-04-14T04:39:13.552Z,34.00
2018-04-14T04:41:41.789Z,33.03
2018-04-14T04:44:10.012Z,30.60
2018-04-14T04:46:37.489Z,29.53
2018-04-14T04:49:04.946Z,28.23
2018-04-14T04:51:32.424Z,26.60
2018-04-14T04:53:59.919Z,26.10
2018-04-14T04:56:27.423Z,25.67
2018-04-14T04:58:54.901Z,23.37
2018-04-14T05:01:22.368Z,23.97
2018-04-14T05:03:49.866Z,21.37
2018-04-14T05:06:18.096Z,20.47
2018-04-14T05:08:45.588Z,17.70
2018-04-14T05:11:13.835Z,19.53
2018-04-14T05:13:41.304Z,19.20
2018-04-14T05:16:08.792Z,19.43
2018-04-14T05:18:36.270Z,19.63
2018-04-14T05:21:03.753Z,17.93
2018-04-14T05:23:31.224Z,17.80
2018-04-14T05:25:59.462Z,18.90
2018-04-14T05:28:26.944Z,16.83
2018-04-14T05:30:54.405Z,18.43
2018-04-14T05:33:21.916Z,17.60
2018-04-14T05:35:50.172Z,16.47
2018-04-14T05:38:17.619Z,15.60
2018-04-14T05:40:45.152Z,16.77
2018-04-14T05:43:12.601Z,17.80
2018-04-14T05:45:40.072Z,16.17
2018-04-14T05:48:07.527Z,16.83
2018-04-14T05:50:35.037Z,17.53
2018-04-14T05:53:03.265Z,18.17
2018-04-14T05:55:30.756Z,16.10
2018-04-14T05:57:58.228Z,17.50
2018-04-14T06:00:26.451Z,15.53
2018-04-14T06:02:53.936Z,16.13
2018-04-14T06:05:21.384Z,16.10
2018-04-14T06:07:48.859Z,15.27
2018-04-14T06:10:16.369Z,15.87
2018-04-14T06:12:43.833Z,14.43
2018-04-14T06:15:11.303Z,14.30
2018-04-14T06:17:38.768Z,12.67
2018-04-14T06:20:06.356Z,12.20
2018-04-14T06:22:33.817Z,12.90
2018-04-14T06:25:01.268Z,12.27
2018-04-14T06:27:29.503Z,10.70
2018-04-14T06:29:57.007Z,11.33
2018-04-14T06:32:25.223Z,11.60
2018-04-14T06:34:53.693Z,10.47
2018-04-14T06:37:21.156Z,11.27
2018-04-14T06:39:48.629Z,9.90
2018-04-14T06:42:16.081Z,8.70
2018-04-14T06:44:43.566Z,9.50
2018-04-14T06:47:11.025Z,8.93
2018-04-14T06:49:38.470Z,9.17
2018-04-14T06:52:05.991Z,10.43
2018-04-14T06:54:33.439Z,8.83
2018-04-14T06:57:00.929Z,9.70
2018-04-14T06:59:28.376Z,9.40
2018-04-14T07:01:55.860Z,8.93
2018-04-14T07:04:23.357Z,10.17
2018-04-14T07:06:51.569Z,9.27
2018-04-14T07:09:19.044Z,9.57
2018-04-14T07:11:46.496Z,10.27
2018-04-14T07:14:14.105Z,9.50
2018-04-14T07:16:41.561Z,9.07
2018-04-14T07:19:09.022Z,9.93
2018-04-14T07:21:36.516Z,10.43
2018-04-14T07:24:03.991Z,8.67
2018-04-14T07:26:31.488Z,9.53
2018-04-14T07:28:58.972Z,9.63
2018-04-14T07:31:26.448Z,9.40
2018-04-14T07:33:53.904Z,9.40
2018-04-14T07:36:21.376Z,8.43
2018-04-14T07:38:48.847Z,8.27
2018-04-14T07:41:16.323Z,9.33
2018-04-14T07:43:43.793Z,8.47
2018-04-14T07:46:11.276Z,8.63
2018-04-14T07:48:38.736Z,9.10
2018-04-14T07:51:06.206Z,8.53
2018-04-14T07:53:33.672Z,8.73
2018-04-14T07:56:01.149Z,8.63
2018-04-14T07:58:28.699Z,9.23
2018-04-14T08:00:56.949Z,9.33
2018-04-14T08:03:24.428Z,8.60
2018-04-14T08:05:51.880Z,8.53
2018-04-14T08:08:19.349Z,8.50
2018-04-14T08:10:47.567Z,8.57
2018-04-14T08:13:15.049Z,8.57
2018-04-14T08:15:42.504Z,7.97
2018-04-14T08:18:11.840Z,8.63
2018-04-14T08:20:40.081Z,8.23
2018-04-14T08:23:07.567Z,8.40
2018-04-14T08:25:35.123Z,7.93
2018-04-14T08:28:02.571Z,8.93
2018-04-14T08:30:30.037Z,8.97
2018-04-14T08:32:57.505Z,8.70
2018-04-14T08:35:25.728Z,9.03
2018-04-14T08:37:53.212Z,8.90
2018-04-14T08:40:20.676Z,9.27
2018-04-14T08:42:48.160Z,8.93
2018-04-14T08:45:15.651Z,8.67
2018-04-14T08:47:43.134Z,8.77
2018-04-14T08:50:10.620Z,8.40
2018-04-14T08:52:38.072Z,9.07
2018-04-14T08:55:05.540Z,8.10
2018-04-14T08:57:33.842Z,9.17
2018-04-14T09:00:01.331Z,8.47
2018-04-14T09:02:28.825Z,8.67
2018-04-14T09:04:56.301Z,8.50
2018-04-14T09:07:24.535Z,9.13
2018-04-14T09:09:52.011Z,8.93
2018-04-14T09:12:19.495Z,8.40
2018-04-14T09:14:47.000Z,8.67
2018-04-14T09:17:14.464Z,9.63
2018-04-14T09:19:41.951Z,9.20
2018-04-14T09:22:09.408Z,9.60
2018-04-14T09:24:36.928Z,9.40
2018-04-14T09:27:04.400Z,9.73
2018-04-14T09:29:32.677Z,9.67
2018-04-14T09:32:00.150Z,10.00
2018-04-14T09:34:27.620Z,10.47
2018-04-14T09:36:55.864Z,11.13
2018-04-14T09:39:23.340Z,11.67
2018-04-14T09:41:50.814Z,11.00
2018-04-14T09:44:19.057Z,12.70
2018-04-14T09:46:46.533Z,11.13
2018-04-14T09:49:14.022Z,10.90
2018-04-14T09:51:41.519Z,11.87
2018-04-14T09:54:08.981Z,11.63
2018-04-14T09:56:36.449Z,11.43
2018-04-14T09:59:03.986Z,12.67
2018-04-14T10:01:31.452Z,12.03
2018-04-14T10:03:59.717Z,13.20
2018-04-14T10:06:27.330Z,13.07
2018-04-14T10:08:54.800Z,12.87
2018-04-14T10:11:22.305Z,13.57
2018-04-14T10:13:49.802Z,13.87
2018-04-14T10:16:18.110Z,13.80
2018-04-14T10:18:46.307Z,12.93
2018-04-14T10:21:13.795Z,12.23
2018-04-14T10:23:41.256Z,13.93
2018-04-14T10:26:09.528Z,14.63
2018-04-14T10:28:36.992Z,14.43
2018-04-14T10:31:04.476Z,14.00
2018-04-14T10:33:31.943Z,13.60
2018-04-14T10:35:59.440Z,14.53
2018-04-14T10:38:26.897Z,14.17
2018-04-14T10:40:54.380Z,14.13
2018-04-14T10:43:21.847Z,11.37
2018-04-14T10:45:50.089Z,11.53
2018-04-14T10:48:17.576Z,12.67
2018-04-14T10:50:45.841Z,10.80
2018-04-14T10:53:13.317Z,9.87
2018-04-14T10:55:40.800Z,11.07
2018-04-14T10:58:08.288Z,11.67
2018-04-14T11:00:35.745Z,16.27
2018-04-14T11:03:03.230Z,12.50
2018-04-14T11:05:31.531Z,11.47
2018-04-14T11:07:59.004Z,10.13
2018-04-14T11:10:26.489Z,13.73
2018-04-14T11:12:53.978Z,12.87
2018-04-14T11:15:22.241Z,11.63
2018-04-14T11:17:49.731Z,12.40
2018-04-14T11:20:17.992Z,12.10
2018-04-14T11:22:45.468Z,11.67
2018-04-14T11:25:12.960Z,14.83
2018-04-14T11:27:40.465Z,13.23
2018-04-14T11:30:08.712Z,11.87
2018-04-14T11:32:36.196Z,12.70
2018-04-14T11:35:03.655Z,11.27
2018-04-14T11:37:31.132Z,11.60
2018-04-14T11:39:58.576Z,10.63
2018-04-14T11:42:26.129Z,11.57
2018-04-14T11:44:53.605Z,11.63
2018-04-14T11:47:21.076Z,11.33
2018-04-14T11:49:48.538Z,12.60
2018-04-14T11:52:16.060Z,11.47
2018-04-14T11:54:43.535Z,11.70
2018-04-14T11:57:11.768Z,13.00
2018-04-14T11:59:39.272Z,13.80
2018-04-14T12:02:07.514Z,12.40
2018-04-14T12:04:34.987Z,16.23
2018-04-14T12:07:02.494Z,14.47
2018-04-14T12:09:29.972Z,13.80
2018-04-14T12:11:57.444Z,15.70
2018-04-14T12:14:24.933Z,16.60
2018-04-14T12:16:53.200Z,13.10
2018-04-14T12:19:20.684Z,11.50
2018-04-14T12:21:48.952Z,12.47
2018-04-14T12:24:17.212Z,10.90
2018-04-14T12:26:44.688Z,12.53
2018-04-14T12:29:12.136Z,10.73
2018-04-14T12:31:39.607Z,10.17
2018-04-14T12:34:08.911Z,10.93
2018-04-14T12:36:37.156Z,9.67
2018-04-14T12:39:04.608Z,11.70
2018-04-14T12:41:32.124Z,10.40
2018-04-14T12:43:59.565Z,10.67
2018-04-14T12:46:27.088Z,8.57
2018-04-14T12:48:54.540Z,10.63
2018-04-14T12:51:22.025Z,10.50
2018-04-14T12:53:50.271Z,10.60
2018-04-14T12:56:17.741Z,10.77
2018-04-14T12:58:45.228Z,13.70
2018-04-14T13:01:12.716Z,13.30
2018-04-14T13:03:40.220Z,15.63
2018-04-14T13:06:08.452Z,17.30
2018-04-14T13:08:35.968Z,17.70
2018-04-14T13:11:04.188Z,17.13
2018-04-14T13:13:31.700Z,18.70
2018-04-14T13:16:00.009Z,18.37
2018-04-14T13:18:27.483Z,17.97
2018-04-14T13:20:54.972Z,15.30
2018-04-14T13:23:22.450Z,15.87
2018-04-14T13:25:50.684Z,17.90
2018-04-14T13:28:18.995Z,19.03
2018-04-14T13:30:47.247Z,19.43
2018-04-14T13:33:14.712Z,19.80
2018-04-14T13:35:42.192Z,19.70
2018-04-14T13:38:10.524Z,21.23
2018-04-14T13:40:37.988Z,20.40
2018-04-14T13:43:05.478Z,21.17
2018-04-14T13:45:32.940Z,21.90
2018-04-14T13:48:01.225Z,25.20
2018-04-14T13:50:29.460Z,24.13
2018-04-14T13:52:56.972Z,23.43
2018-04-14T13:55:25.849Z,22.63
2018-04-14T13:57:54.102Z,27.90
2018-04-14T14:00:21.588Z,24.87
2018-04-14T14:02:49.835Z,21.43
2018-04-14T14:05:17.345Z,23.90
2018-04-14T14:07:44.793Z,25.50
2018-04-14T14:10:12.274Z,24.07
2018-04-14T14:12:39.769Z,26.77
2018-04-14T14:15:07.254Z,25.63
2018-04-14T14:17:35.518Z,29.27
2018-04-14T14:20:03.019Z,25.90
2018-04-14T14:22:30.470Z,25.53
2018-04-14T14:24:57.978Z,27.00
2018-04-14T14:27:25.471Z,27.70
2018-04-14T14:29:52.931Z,29.77
2018-04-14T14:32:20.538Z,28.87
2018-04-14T14:34:47.980Z,28.90
2018-04-14T14:37:15.477Z,29.00
2018-04-14T14:39:42.935Z,30.67
2018-04-14T14:42:10.413Z,29.57
2018-04-14T14:44:37.880Z,32.30
2018-04-14T14:47:05.370Z,32.23
2018-04-14T14:49:32.852Z,28.60
2018-04-14T14:52:00.308Z,33.43
2018-04-14T14:54:27.788Z,33.93
2018-04-14T14:56:56.013Z,30.87
2018-04-14T14:59:24.353Z,34.67
2018-04-14T15:01:51.857Z,33.10
2018-04-14T15:04:19.312Z,33.20
2018-04-14T15:06:46.788Z,33.73
2018-04-14T15:09:14.248Z,36.30
2018-04-14T15:11:41.729Z,35.30
2018-04-14T15:14:09.204Z,37.60
2018-04-14T15:16:36.676Z,38.70
2018-04-14T15:19:04.282Z,41.53
2018-04-14T15:21:31.751Z,39.37
2018-04-14T15:23:59.996Z,40.00
2018-04-14T15:26:27.478Z,37.53
2018-04-14T15:28:54.928Z,40.13
2018-04-14T15:31:22.439Z,42.13
2018-04-14T15:33:49.897Z,41.67
2018-04-14T15:36:17.392Z,46.00
2018-04-14T15:38:44.877Z,49.23
2018-04-14T15:41:13.163Z,50.13
2018-04-14T15:43:41.428Z,49.00
2018-04-14T15:46:09.688Z,43.10
2018-04-14T15:48:37.224Z,43.33
2018-04-14T15:51:04.704Z,45.10
2018-04-14T15:53:32.188Z,46.47
2018-04-14T15:55:59.671Z,45.40
2018-04-14T15:58:27.164Z,44.33
2018-04-14T16:00:54.660Z,47.47
2018-04-14T16:03:22.165Z,46.30
2018-04-14T16:05:49.645Z,48.77
2018-04-14T16:08:17.137Z,45.60
2018-04-14T16:10:44.613Z,48.27
2018-04-14T16:13:12.139Z,49.57
2018-04-14T16:15:40.384Z,51.90
2018-04-14T16:18:07.863Z,52.37
2018-04-14T16:20:35.358Z,50.00
2018-04-14T16:23:02.861Z,58.40
2018-04-14T16:25:31.097Z,53.67
2018-04-14T16:27:58.588Z,49.80
2018-04-14T16:30:26.091Z,57.07
2018-04-14T16:32:54.333Z,61.60
2018-04-14T16:35:21.823Z,52.17
2018-04-14T16:37:50.058Z,65.33
2018-04-14T16:40:17.542Z,64.50
2018-04-14T16:42:45.005Z,59.63
2018-04-14T16:45:12.517Z,62.23
2018-04-14T16:47:39.992Z,63.27
2018-04-14T16:50:07.452Z,59.57
2018-04-14T16:52:35.751Z,58.83
2018-04-14T16:55:04.048Z,62.23
2018-04-14T16:57:31.484Z,62.40
2018-04-14T16:59:59.733Z,57.00
2018-04-14T17:02:27.241Z,61.53
2018-04-14T17:04:54.715Z,58.70
2018-04-14T17:07:22.173Z,63.20
2018-04-14T17:09:49.658Z,66.67
2018-04-14T17:12:17.124Z,64.97
2018-04-14T17:14:44.592Z,61.10
2018-04-14T17:17:12.085Z,59.67
2018-04-14T17:19:39.546Z,57.43
2018-04-14T17:22:07.021Z,62.33
2018-04-14T17:24:34.476Z,61.00
2018-04-14T17:27:01.968Z,64.13
2018-04-14T17:29:29.460Z,69.53
2018-04-14T17:31:56.932Z,62.73
2018-04-14T17:34:24.403Z,67.63
2018-04-14T17:36:51.859Z,62.27
2018-04-14T17:39:19.350Z,67.77
2018-04-14T17:41:46.817Z,68.20
2018-04-14T17:44:14.317Z,60.40
2018-04-14T17:46:41.804Z,67.27
2018-04-14T17:49:09.359Z,72.73
2018-04-14T17:51:36.816Z,67.10
2018-04-14T17:54:04.279Z,66.17
2018-04-14T17:56:31.757Z,71.43
2018-04-14T17:58:59.224Z,60.70
2018-04-14T18:01:26.736Z,64.63
2018-04-14T18:03:54.197Z,69.13
2018-04-14T18:06:21.694Z,64.60
2018-04-14T18:08:49.938Z,65.60
2018-04-14T18:11:17.433Z,70.27
2018-04-14T18:13:44.892Z,69.50
2018-04-14T18:16:13.157Z,67.77
2018-04-14T18:18:40.673Z,69.53
2018-04-14T18:21:08.210Z,66.57
2018-04-14T18:23:35.682Z,65.07
2018-04-14T18:26:03.147Z,62.10
2018-04-14T18:28:30.620Z,66.53
2018-04-14T18:30:58.115Z,61.50
2018-04-14T18:33:25.640Z,70.73
2018-04-14T18:35:53.144Z,62.87
2018-04-14T18:38:21.391Z,63.27
2018-04-14T18:40:48.873Z,67.07
2018-04-14T18:43:17.240Z,61.77
2018-04-14T18:45:44.717Z,67.90
2018-04-14T18:48:12.180Z,61.67
2018-04-14T18:50:39.670Z,68.50
2018-04-14T18:53:07.939Z,67.03
2018-04-14T18:55:35.412Z,78.17
2018-04-14T18:58:03.767Z,62.57
2018-04-14T19:00:31.303Z,77.93
2018-04-14T19:02:59.522Z,74.60
2018-04-14T19:05:27.036Z,72.80
2018-04-14T19:07:54.499Z,67.70
2018-04-14T19:10:22.013Z,73.17
2018-04-14T19:12:49.462Z,74.87
2018-04-14T19:15:16.948Z,78.80
2018-04-14T19:17:45.177Z,69.97
2018-04-14T19:20:12.645Z,69.33
2018-04-14T19:22:40.145Z,78.03
2018-04-14T19:25:08.380Z,77.93
2018-04-14T19:27:35.836Z,79.27
2018-04-14T19:30:04.082Z,76.33
2018-04-14T19:32:31.577Z,73.27
2018-04-14T19:34:59.072Z,73.27
2018-04-14T19:37:26.532Z,81.07
2018-04-14T19:39:54.805Z,71.57
2018-04-14T19:42:23.044Z,71.23
2018-04-14T19:44:50.496Z,71.70
2018-04-14T19:47:17.995Z,76.93
2018-04-14T19:49:45.473Z,78.17
2018-04-14T19:52:12.965Z,78.40
2018-04-14T19:54:40.422Z,84.87
2018-04-14T19:57:07.918Z,77.17
2018-04-14T19:59:35.386Z,66.97
2018-04-14T20:02:03.652Z,70.37
2018-04-14T20:04:31.871Z,76.13
2018-04-14T20:06:59.393Z,72.57
2018-04-14T20:09:27.572Z,74.40
2018-04-14T20:11:55.848Z,65.73
2018-04-14T20:14:24.077Z,66.67
2018-04-14T20:16:51.584Z,67.93
2018-04-14T20:19:19.062Z,72.40
2018-04-14T20:21:46.520Z,67.57
2018-04-14T20:24:14.051Z,69.37
2018-04-14T20:26:41.516Z,84.80
2018-04-14T20:29:09.016Z,80.33
2018-04-14T20:31:36.477Z,67.87
2018-04-14T20:34:03.968Z,71.23
2018-04-14T20:36:32.214Z,78.07
2018-04-14T20:38:59.726Z,72.83
2018-04-14T20:41:27.229Z,77.63
2018-04-14T20:43:54.703Z,88.43
2018-04-14T20:46:22.156Z,74.53
2018-04-14T20:48:49.634Z,81.37
2018-04-14T20:51:17.131Z,78.33
2018-04-14T20:53:44.604Z,73.37
2018-04-14T20:56:12.901Z,76.20
2018-04-14T20:58:41.369Z,75.67
2018-04-14T21:01:08.845Z,81.27
2018-04-14T21:03:36.321Z,82.47
2018-04-14T21:06:04.550Z,78.67
2018-04-14T21:08:32.020Z,71.67
2018-04-14T21:11:00.264Z,82.07
2018-04-14T21:13:27.736Z,89.27
2018-04-14T21:15:55.212Z,85.90
2018-04-14T21:18:22.668Z,83.00
2018-04-14T21:20:50.162Z,83.10
2018-04-14T21:23:17.636Z,73.77
2018-04-14T21:25:45.134Z,81.90
2018-04-14T21:28:12.601Z,83.30
2018-04-14T21:30:40.059Z,80.13
2018-04-14T21:33:07.550Z,75.90
2018-04-14T21:35:35.770Z,87.87
2018-04-14T21:38:03.227Z,85.97
2018-04-14T21:40:30.718Z,77.83
2018-04-14T21:42:58.209Z,84.20
2018-04-14T21:45:25.680Z,82.30
2018-04-14T21:47:53.161Z,94.13
2018-04-14T21:50:20.640Z,76.67
2018-04-14T21:52:48.165Z,81.87
2018-04-14T21:55:15.645Z,72.30
2018-04-14T21:57:43.142Z,81.00
2018-04-14T22:00:11.388Z,84.27
2018-04-14T22:02:38.847Z,72.77
2018-04-14T22:05:06.349Z,83.13
2018-04-14T22:07:33.808Z,84.20
2018-04-14T22:10:01.300Z,84.53
2018-04-14T22:12:28.808Z,86.70
2018-04-14T22:14:57.527Z,86.87
2018-04-14T22:17:25.025Z,88.57
2018-04-14T22:19:52.480Z,95.23
2018-04-14T22:22:19.991Z,94.40
2018-04-14T22:24:47.457Z,86.20
2018-04-14T22:27:14.920Z,88.50
2018-04-14T22:29:42.442Z,88.27
2018-04-14T22:32:09.921Z,85.80
2018-04-14T22:34:37.439Z,82.10
2018-04-14T22:37:04.903Z,76.63
2018-04-14T22:39:33.164Z,79.43
2018-04-14T22:42:00.614Z,76.97
2018-04-14T22:44:28.134Z,74.30
2018-04-14T22:46:55.604Z,70.13
2018-04-14T22:49:23.089Z,75.40
2018-04-14T22:51:50.606Z,80.10
2018-04-14T22:54:18.065Z,74.50
2018-04-14T22:56:45.545Z,82.77
2018-04-14T22:59:13.119Z,90.30
2018-04-14T23:01:40.588Z,79.40
2018-04-14T23:04:08.061Z,84.50
2018-04-14T23:06:36.320Z,78.93
2018-04-14T23:09:03.780Z,84.03
2018-04-14T23:11:31.248Z,76.37
2018-04-14T23:13:59.476Z,86.90
2018-04-14T23:16:26.968Z,71.07
2018-04-14T23:18:54.432Z,81.83
2018-04-14T23:21:22.704Z,79.53
2018-04-14T23:23:50.936Z,79.83
2018-04-14T23:26:18.431Z,81.30
2018-04-14T23:28:45.913Z,77.27
2018-04-14T23:31:14.161Z,76.23
2018-04-14T23:33:42.598Z,76.47
2018-04-14T23:36:10.060Z,80.63
2018-04-14T23:38:37.558Z,80.50
2018-04-14T23:41:05.021Z,79.57
2018-04-14T23:57:46.049Z,79.13
